sensor_id;sensor_type;location;lat;lon;timestamp;temperature;humidity
60027;DHT22;45891;53.006;6.512;2022-10-16T00:00:42;12.20;99.90
60027;DHT22;45891;53.006;6.512;2022-10-16T00:03:09;12.10;99.90
60027;DHT22;45891;53.006;6.512;2022-10-16T00:05:40;12.20;99.90
60027;DHT22;45891;53.006;6.512;2022-10-16T00:08:08;12.20;99.90
60027;DHT22;45891;53.006;6.512;2022-10-16T00:10:34;12.20;99.90
60027;DHT22;45891;53.006;6.512;2022-10-16T00:13:01;12.20;99.90
60027;DHT22;45891;53.006;6.512;2022-10-16T00:15:27;12.20;99.90
60027;DHT22;45891;53.006;6.512;2022-10-16T00:17:53;12.20;99.90
60027;DHT22;45891;53.006;6.512;2022-10-16T00:20:19;12.20;99.90
60027;DHT22;45891;53.006;6.512;2022-10-16T00:22:45;12.20;99.90
60027;DHT22;45891;53.006;6.512;2022-10-16T00:25:12;12.20;99.90
60027;DHT22;45891;53.006;6.512;2022-10-16T00:27:38;12.20;99.90
60027;DHT22;45891;53.006;6.512;2022-10-16T00:30:05;12.20;99.90
60027;DHT22;45891;53.006;6.512;2022-10-16T00:32:31;12.20;99.90
60027;DHT22;45891;53.006;6.512;2022-10-16T00:34:57;12.20;99.90
60027;DHT22;45891;53.006;6.512;2022-10-16T00:37:23;12.30;99.90
60027;DHT22;45891;53.006;6.512;2022-10-16T00:39:49;12.30;99.90
60027;DHT22;45891;53.006;6.512;2022-10-16T00:42:17;12.30;99.90
60027;DHT22;45891;53.006;6.512;2022-10-16T00:44:53;12.30;99.90
60027;DHT22;45891;53.006;6.512;2022-10-16T00:47:28;12.30;99.90
60027;DHT22;45891;53.006;6.512;2022-10-16T00:50:03;12.40;99.90
60027;DHT22;45891;53.006;6.512;2022-10-16T00:52:32;12.40;99.90
60027;DHT22;45891;53.006;6.512;2022-10-16T00:54:58;12.50;99.90
60027;DHT22;45891;53.006;6.512;2022-10-16T00:57:26;12.50;99.90
60027;DHT22;45891;53.006;6.512;2022-10-16T00:59:53;12.50;99.90
60027;DHT22;45891;53.006;6.512;2022-10-16T01:02:20;12.50;99.90
60027;DHT22;45891;53.006;6.512;2022-10-16T01:04:49;12.50;99.90
60027;DHT22;45891;53.006;6.512;2022-10-16T01:13:07;12.50;99.90
60027;DHT22;45891;53.006;6.512;2022-10-16T01:20:52;12.50;99.90
60027;DHT22;45891;53.006;6.512;2022-10-16T01:26:16;12.50;99.90
60027;DHT22;45891;53.006;6.512;2022-10-16T01:29:06;12.50;99.90
60027;DHT22;45891;53.006;6.512;2022-10-16T01:31:36;12.60;99.90
60027;DHT22;45891;53.006;6.512;2022-10-16T01:34:06;12.60;99.90
60027;DHT22;45891;53.006;6.512;2022-10-16T01:36:40;12.60;99.90
60027;DHT22;45891;53.006;6.512;2022-10-16T01:39:09;12.60;99.90
60027;DHT22;45891;53.006;6.512;2022-10-16T01:41:44;12.60;99.90
60027;DHT22;45891;53.006;6.512;2022-10-16T01:44:18;12.60;99.90
60027;DHT22;45891;53.006;6.512;2022-10-16T01:46:48;12.60;99.90
60027;DHT22;45891;53.006;6.512;2022-10-16T01:49:17;12.60;99.90
60027;DHT22;45891;53.006;6.512;2022-10-16T01:51:46;12.60;99.90
60027;DHT22;45891;53.006;6.512;2022-10-16T01:54:14;12.60;99.90
60027;DHT22;45891;53.006;6.512;2022-10-16T01:56:42;12.60;99.90
60027;DHT22;45891;53.006;6.512;2022-10-16T01:59:18;12.60;99.90
60027;DHT22;45891;53.006;6.512;2022-10-16T02:01:47;12.60;99.90
60027;DHT22;45891;53.006;6.512;2022-10-16T02:06:43;12.70;99.90
60027;DHT22;45891;53.006;6.512;2022-10-16T02:09:09;12.70;99.90
60027;DHT22;45891;53.006;6.512;2022-10-16T02:11:36;12.70;99.90
60027;DHT22;45891;53.006;6.512;2022-10-16T02:14:05;12.70;99.90
60027;DHT22;45891;53.006;6.512;2022-10-16T02:16:39;12.70;99.90
60027;DHT22;45891;53.006;6.512;2022-10-16T02:19:06;12.70;99.90
60027;DHT22;45891;53.006;6.512;2022-10-16T02:24:10;12.70;99.90
60027;DHT22;45891;53.006;6.512;2022-10-16T02:29:12;12.80;99.90
60027;DHT22;45891;53.006;6.512;2022-10-16T02:31:44;12.80;99.90
60027;DHT22;45891;53.006;6.512;2022-10-16T02:34:12;12.80;99.90
60027;DHT22;45891;53.006;6.512;2022-10-16T02:36:41;12.80;99.90
60027;DHT22;45891;53.006;6.512;2022-10-16T02:39:08;12.80;99.90
60027;DHT22;45891;53.006;6.512;2022-10-16T02:41:35;12.80;99.90
60027;DHT22;45891;53.006;6.512;2022-10-16T02:44:01;12.80;99.90
60027;DHT22;45891;53.006;6.512;2022-10-16T02:46:28;12.80;99.90
60027;DHT22;45891;53.006;6.512;2022-10-16T02:48:54;12.80;99.90
60027;DHT22;45891;53.006;6.512;2022-10-16T02:51:20;12.80;99.90
60027;DHT22;45891;53.006;6.512;2022-10-16T02:53:46;12.90;99.90
60027;DHT22;45891;53.006;6.512;2022-10-16T02:56:12;12.80;99.90
60027;DHT22;45891;53.006;6.512;2022-10-16T02:58:38;12.80;99.90
60027;DHT22;45891;53.006;6.512;2022-10-16T03:01:04;12.90;99.90
60027;DHT22;45891;53.006;6.512;2022-10-16T03:03:31;12.80;99.90
60027;DHT22;45891;53.006;6.512;2022-10-16T03:05:57;12.90;99.90
60027;DHT22;45891;53.006;6.512;2022-10-16T03:08:23;12.80;99.90
60027;DHT22;45891;53.006;6.512;2022-10-16T03:10:51;12.80;99.90
60027;DHT22;45891;53.006;6.512;2022-10-16T03:13:18;12.80;99.90
60027;DHT22;45891;53.006;6.512;2022-10-16T03:15:46;12.80;99.90
60027;DHT22;45891;53.006;6.512;2022-10-16T03:18:13;12.80;99.90
60027;DHT22;45891;53.006;6.512;2022-10-16T03:20:39;12.80;99.90
60027;DHT22;45891;53.006;6.512;2022-10-16T03:23:06;12.80;99.90
60027;DHT22;45891;53.006;6.512;2022-10-16T03:25:34;12.80;99.90
60027;DHT22;45891;53.006;6.512;2022-10-16T03:28:00;12.80;99.90
60027;DHT22;45891;53.006;6.512;2022-10-16T03:30:26;12.70;99.90
60027;DHT22;45891;53.006;6.512;2022-10-16T03:32:52;12.70;99.90
60027;DHT22;45891;53.006;6.512;2022-10-16T03:35:21;12.70;99.90
60027;DHT22;45891;53.006;6.512;2022-10-16T03:37:47;12.70;99.90
60027;DHT22;45891;53.006;6.512;2022-10-16T03:40:14;12.70;99.90
60027;DHT22;45891;53.006;6.512;2022-10-16T03:42:40;12.70;99.90
60027;DHT22;45891;53.006;6.512;2022-10-16T03:45:08;12.70;99.90
60027;DHT22;45891;53.006;6.512;2022-10-16T03:47:34;12.70;99.90
60027;DHT22;45891;53.006;6.512;2022-10-16T03:50:00;12.70;99.90
60027;DHT22;45891;53.006;6.512;2022-10-16T03:52:26;12.60;99.90
60027;DHT22;45891;53.006;6.512;2022-10-16T03:54:53;12.60;99.90
60027;DHT22;45891;53.006;6.512;2022-10-16T03:57:19;12.60;99.90
60027;DHT22;45891;53.006;6.512;2022-10-16T03:59:46;12.60;99.90
60027;DHT22;45891;53.006;6.512;2022-10-16T04:02:13;12.60;99.90
60027;DHT22;45891;53.006;6.512;2022-10-16T04:04:39;12.60;99.90
60027;DHT22;45891;53.006;6.512;2022-10-16T04:07:05;12.60;99.90
60027;DHT22;45891;53.006;6.512;2022-10-16T04:09:31;12.70;99.90
60027;DHT22;45891;53.006;6.512;2022-10-16T04:11:57;12.70;99.90
60027;DHT22;45891;53.006;6.512;2022-10-16T04:14:24;12.60;99.90
60027;DHT22;45891;53.006;6.512;2022-10-16T04:16:50;12.70;99.90
60027;DHT22;45891;53.006;6.512;2022-10-16T04:19:16;12.70;99.90
60027;DHT22;45891;53.006;6.512;2022-10-16T04:21:42;12.60;99.90
60027;DHT22;45891;53.006;6.512;2022-10-16T04:24:08;12.70;99.90
60027;DHT22;45891;53.006;6.512;2022-10-16T04:26:34;12.60;99.90
60027;DHT22;45891;53.006;6.512;2022-10-16T04:29:01;12.60;99.90
60027;DHT22;45891;53.006;6.512;2022-10-16T04:31:27;12.60;99.90
60027;DHT22;45891;53.006;6.512;2022-10-16T04:33:53;12.60;99.90
60027;DHT22;45891;53.006;6.512;2022-10-16T04:36:19;12.50;99.90
60027;DHT22;45891;53.006;6.512;2022-10-16T04:38:45;12.50;99.90
60027;DHT22;45891;53.006;6.512;2022-10-16T04:41:11;12.50;99.90
60027;DHT22;45891;53.006;6.512;2022-10-16T04:43:38;12.50;99.90
60027;DHT22;45891;53.006;6.512;2022-10-16T04:46:04;12.50;99.90
60027;DHT22;45891;53.006;6.512;2022-10-16T04:48:31;12.50;99.90
60027;DHT22;45891;53.006;6.512;2022-10-16T04:50:57;12.60;99.90
60027;DHT22;45891;53.006;6.512;2022-10-16T04:53:23;12.60;99.90
60027;DHT22;45891;53.006;6.512;2022-10-16T04:55:50;12.60;99.90
60027;DHT22;45891;53.006;6.512;2022-10-16T04:58:16;12.60;99.90
60027;DHT22;45891;53.006;6.512;2022-10-16T05:00:44;12.60;99.90
60027;DHT22;45891;53.006;6.512;2022-10-16T05:03:10;12.70;99.90
60027;DHT22;45891;53.006;6.512;2022-10-16T05:05:36;12.60;99.90
60027;DHT22;45891;53.006;6.512;2022-10-16T05:08:02;12.60;99.90
60027;DHT22;45891;53.006;6.512;2022-10-16T05:10:29;12.60;99.90
60027;DHT22;45891;53.006;6.512;2022-10-16T05:12:55;12.70;99.90
60027;DHT22;45891;53.006;6.512;2022-10-16T05:15:22;12.70;99.90
60027;DHT22;45891;53.006;6.512;2022-10-16T05:17:53;12.70;99.90
60027;DHT22;45891;53.006;6.512;2022-10-16T05:20:19;12.70;99.90
60027;DHT22;45891;53.006;6.512;2022-10-16T05:22:45;12.70;99.90
60027;DHT22;45891;53.006;6.512;2022-10-16T05:25:11;12.70;99.90
60027;DHT22;45891;53.006;6.512;2022-10-16T05:27:38;12.80;99.90
60027;DHT22;45891;53.006;6.512;2022-10-16T05:30:04;12.70;99.90
60027;DHT22;45891;53.006;6.512;2022-10-16T05:32:31;12.70;99.90
60027;DHT22;45891;53.006;6.512;2022-10-16T05:34:57;12.70;99.90
60027;DHT22;45891;53.006;6.512;2022-10-16T05:37:25;12.70;99.90
60027;DHT22;45891;53.006;6.512;2022-10-16T05:39:53;12.70;99.90
60027;DHT22;45891;53.006;6.512;2022-10-16T05:42:19;12.70;99.90
60027;DHT22;45891;53.006;6.512;2022-10-16T05:44:45;12.70;99.90
60027;DHT22;45891;53.006;6.512;2022-10-16T05:47:12;12.70;99.90
60027;DHT22;45891;53.006;6.512;2022-10-16T05:49:40;12.70;99.90
60027;DHT22;45891;53.006;6.512;2022-10-16T05:52:06;12.70;99.90
60027;DHT22;45891;53.006;6.512;2022-10-16T05:54:32;12.70;99.90
60027;DHT22;45891;53.006;6.512;2022-10-16T05:56:58;12.70;99.90
60027;DHT22;45891;53.006;6.512;2022-10-16T05:59:25;12.70;99.90
60027;DHT22;45891;53.006;6.512;2022-10-16T06:01:51;12.80;99.90
60027;DHT22;45891;53.006;6.512;2022-10-16T06:04:18;12.80;99.90
60027;DHT22;45891;53.006;6.512;2022-10-16T06:06:44;12.80;99.90
60027;DHT22;45891;53.006;6.512;2022-10-16T06:09:10;12.80;99.90
60027;DHT22;45891;53.006;6.512;2022-10-16T06:11:36;12.90;99.90
60027;DHT22;45891;53.006;6.512;2022-10-16T06:14:03;12.90;99.90
60027;DHT22;45891;53.006;6.512;2022-10-16T06:16:36;12.80;99.90
60027;DHT22;45891;53.006;6.512;2022-10-16T06:19:03;12.90;99.90
60027;DHT22;45891;53.006;6.512;2022-10-16T06:21:32;12.80;99.90
60027;DHT22;45891;53.006;6.512;2022-10-16T06:23:58;12.90;99.90
60027;DHT22;45891;53.006;6.512;2022-10-16T06:26:27;12.90;99.90
60027;DHT22;45891;53.006;6.512;2022-10-16T06:28:55;12.90;99.90
60027;DHT22;45891;53.006;6.512;2022-10-16T06:31:22;12.80;99.90
60027;DHT22;45891;53.006;6.512;2022-10-16T06:33:51;12.90;99.90
60027;DHT22;45891;53.006;6.512;2022-10-16T06:36:18;12.90;99.90
60027;DHT22;45891;53.006;6.512;2022-10-16T06:38:44;12.90;99.90
60027;DHT22;45891;53.006;6.512;2022-10-16T06:41:16;12.90;99.90
60027;DHT22;45891;53.006;6.512;2022-10-16T06:43:43;13.00;99.90
60027;DHT22;45891;53.006;6.512;2022-10-16T06:46:12;13.00;99.90
60027;DHT22;45891;53.006;6.512;2022-10-16T06:48:38;13.00;99.90
60027;DHT22;45891;53.006;6.512;2022-10-16T06:51:10;13.00;99.90
60027;DHT22;45891;53.006;6.512;2022-10-16T06:53:39;13.00;99.90
60027;DHT22;45891;53.006;6.512;2022-10-16T06:56:29;13.00;99.90
60027;DHT22;45891;53.006;6.512;2022-10-16T06:58:56;13.00;99.90
60027;DHT22;45891;53.006;6.512;2022-10-16T07:01:24;13.00;99.90
60027;DHT22;45891;53.006;6.512;2022-10-16T07:03:51;13.00;99.90
60027;DHT22;45891;53.006;6.512;2022-10-16T07:06:21;13.00;99.90
60027;DHT22;45891;53.006;6.512;2022-10-16T07:08:48;13.10;99.90
60027;DHT22;45891;53.006;6.512;2022-10-16T07:11:16;13.10;99.90
60027;DHT22;45891;53.006;6.512;2022-10-16T07:13:44;13.10;99.90
60027;DHT22;45891;53.006;6.512;2022-10-16T07:16:15;13.10;99.90
60027;DHT22;45891;53.006;6.512;2022-10-16T07:18:43;13.20;99.90
60027;DHT22;45891;53.006;6.512;2022-10-16T07:21:19;13.20;99.90
60027;DHT22;45891;53.006;6.512;2022-10-16T07:23:50;13.30;99.90
60027;DHT22;45891;53.006;6.512;2022-10-16T07:26:17;13.30;99.90
60027;DHT22;45891;53.006;6.512;2022-10-16T07:28:44;13.30;99.90
60027;DHT22;45891;53.006;6.512;2022-10-16T07:31:12;13.40;99.90
60027;DHT22;45891;53.006;6.512;2022-10-16T07:33:40;13.30;99.90
60027;DHT22;45891;53.006;6.512;2022-10-16T07:36:08;13.30;99.90
60027;DHT22;45891;53.006;6.512;2022-10-16T07:38:34;13.40;99.90
60027;DHT22;45891;53.006;6.512;2022-10-16T07:41:03;13.40;99.90
60027;DHT22;45891;53.006;6.512;2022-10-16T07:43:30;13.40;99.90
60027;DHT22;45891;53.006;6.512;2022-10-16T07:45:56;13.50;99.90
60027;DHT22;45891;53.006;6.512;2022-10-16T07:48:24;13.50;99.90
60027;DHT22;45891;53.006;6.512;2022-10-16T07:50:52;13.50;99.90
60027;DHT22;45891;53.006;6.512;2022-10-16T07:53:18;13.60;99.90
60027;DHT22;45891;53.006;6.512;2022-10-16T07:55:44;13.60;99.90
60027;DHT22;45891;53.006;6.512;2022-10-16T07:58:10;13.60;99.90
60027;DHT22;45891;53.006;6.512;2022-10-16T08:00:37;13.70;99.90
60027;DHT22;45891;53.006;6.512;2022-10-16T08:03:03;13.80;99.90
60027;DHT22;45891;53.006;6.512;2022-10-16T08:05:31;13.80;99.90
60027;DHT22;45891;53.006;6.512;2022-10-16T08:07:58;13.90;99.90
60027;DHT22;45891;53.006;6.512;2022-10-16T08:10:26;13.90;99.90
60027;DHT22;45891;53.006;6.512;2022-10-16T08:12:53;13.90;99.90
60027;DHT22;45891;53.006;6.512;2022-10-16T08:15:20;13.90;99.90
60027;DHT22;45891;53.006;6.512;2022-10-16T08:18:00;14.00;99.90
60027;DHT22;45891;53.006;6.512;2022-10-16T08:20:27;14.00;99.90
60027;DHT22;45891;53.006;6.512;2022-10-16T08:22:54;14.00;99.90
60027;DHT22;45891;53.006;6.512;2022-10-16T08:25:24;14.00;99.90
60027;DHT22;45891;53.006;6.512;2022-10-16T08:27:51;13.90;99.90
60027;DHT22;45891;53.006;6.512;2022-10-16T08:30:21;13.90;99.90
60027;DHT22;45891;53.006;6.512;2022-10-16T08:32:50;14.00;99.90
60027;DHT22;45891;53.006;6.512;2022-10-16T08:35:17;14.00;99.90
60027;DHT22;45891;53.006;6.512;2022-10-16T08:37:46;14.00;99.90
60027;DHT22;45891;53.006;6.512;2022-10-16T08:40:27;14.00;99.90
60027;DHT22;45891;53.006;6.512;2022-10-16T08:45:29;14.00;99.90
60027;DHT22;45891;53.006;6.512;2022-10-16T08:48:27;14.10;99.90
60027;DHT22;45891;53.006;6.512;2022-10-16T08:50:56;14.20;99.90
60027;DHT22;45891;53.006;6.512;2022-10-16T08:53:30;14.20;99.90
60027;DHT22;45891;53.006;6.512;2022-10-16T08:55:57;14.30;99.90
60027;DHT22;45891;53.006;6.512;2022-10-16T08:58:29;14.40;99.90
60027;DHT22;45891;53.006;6.512;2022-10-16T09:00:58;14.40;99.90
60027;DHT22;45891;53.006;6.512;2022-10-16T09:03:56;14.40;99.90
60027;DHT22;45891;53.006;6.512;2022-10-16T09:12:43;14.60;99.90
60027;DHT22;45891;53.006;6.512;2022-10-16T09:15:32;14.60;99.90
60027;DHT22;45891;53.006;6.512;2022-10-16T09:23:38;14.70;99.90
60027;DHT22;45891;53.006;6.512;2022-10-16T09:26:05;14.80;99.90
60027;DHT22;45891;53.006;6.512;2022-10-16T09:28:35;14.90;99.90
60027;DHT22;45891;53.006;6.512;2022-10-16T09:31:01;14.90;99.90
60027;DHT22;45891;53.006;6.512;2022-10-16T09:33:35;15.00;99.90
60027;DHT22;45891;53.006;6.512;2022-10-16T09:36:03;15.10;99.90
60027;DHT22;45891;53.006;6.512;2022-10-16T09:38:35;15.10;99.90
60027;DHT22;45891;53.006;6.512;2022-10-16T09:41:19;15.20;99.90
60027;DHT22;45891;53.006;6.512;2022-10-16T09:43:53;15.40;99.90
60027;DHT22;45891;53.006;6.512;2022-10-16T09:46:35;15.60;99.90
60027;DHT22;45891;53.006;6.512;2022-10-16T09:49:24;15.80;99.90
60027;DHT22;45891;53.006;6.512;2022-10-16T09:52:02;15.70;99.90
60027;DHT22;45891;53.006;6.512;2022-10-16T09:54:28;15.70;99.90
60027;DHT22;45891;53.006;6.512;2022-10-16T09:57:07;15.70;99.90
60027;DHT22;45891;53.006;6.512;2022-10-16T09:59:33;15.80;99.90
60027;DHT22;45891;53.006;6.512;2022-10-16T10:02:10;15.90;99.90
60027;DHT22;45891;53.006;6.512;2022-10-16T10:04:43;15.90;99.90
60027;DHT22;45891;53.006;6.512;2022-10-16T10:07:18;15.90;99.90
60027;DHT22;45891;53.006;6.512;2022-10-16T10:09:46;16.00;99.90
60027;DHT22;45891;53.006;6.512;2022-10-16T10:12:25;16.00;99.90
60027;DHT22;45891;53.006;6.512;2022-10-16T10:14:53;16.10;99.90
60027;DHT22;45891;53.006;6.512;2022-10-16T10:17:24;16.10;99.90
60027;DHT22;45891;53.006;6.512;2022-10-16T10:22:42;16.20;99.90
60027;DHT22;45891;53.006;6.512;2022-10-16T10:36:12;16.30;99.90
60027;DHT22;45891;53.006;6.512;2022-10-16T10:45:00;16.40;99.90
60027;DHT22;45891;53.006;6.512;2022-10-16T10:50:18;16.40;99.90
60027;DHT22;45891;53.006;6.512;2022-10-16T10:53:00;16.50;99.90
60027;DHT22;45891;53.006;6.512;2022-10-16T10:55:51;16.50;99.90
60027;DHT22;45891;53.006;6.512;2022-10-16T11:07:01;16.70;99.90
60027;DHT22;45891;53.006;6.512;2022-10-16T11:09:41;16.60;99.90
60027;DHT22;45891;53.006;6.512;2022-10-16T11:12:29;16.70;99.90
60027;DHT22;45891;53.006;6.512;2022-10-16T11:15:17;16.80;99.90
60027;DHT22;45891;53.006;6.512;2022-10-16T11:17:50;16.80;99.90
60027;DHT22;45891;53.006;6.512;2022-10-16T11:20:19;16.90;99.90
60027;DHT22;45891;53.006;6.512;2022-10-16T11:23:05;17.00;99.90
60027;DHT22;45891;53.006;6.512;2022-10-16T11:25:33;17.00;99.90
60027;DHT22;45891;53.006;6.512;2022-10-16T11:38:17;18.60;99.90
60027;DHT22;45891;53.006;6.512;2022-10-16T11:40:47;19.40;99.90
60027;DHT22;45891;53.006;6.512;2022-10-16T11:43:24;20.00;99.90
60027;DHT22;45891;53.006;6.512;2022-10-16T11:45:55;19.90;99.90
60027;DHT22;45891;53.006;6.512;2022-10-16T11:51:13;19.80;99.90
60027;DHT22;45891;53.006;6.512;2022-10-16T11:53:53;20.10;98.40
60027;DHT22;45891;53.006;6.512;2022-10-16T11:56:21;20.70;98.50
60027;DHT22;45891;53.006;6.512;2022-10-16T11:59:11;20.60;97.10
60027;DHT22;45891;53.006;6.512;2022-10-16T12:01:46;21.00;97.20
60027;DHT22;45891;53.006;6.512;2022-10-16T12:06:59;22.10;97.40
60027;DHT22;45891;53.006;6.512;2022-10-16T12:09:31;22.50;96.10
60027;DHT22;45891;53.006;6.512;2022-10-16T12:11:58;22.90;96.50
60027;DHT22;45891;53.006;6.512;2022-10-16T12:14:39;22.50;95.50
60027;DHT22;45891;53.006;6.512;2022-10-16T12:17:34;22.60;94.70
60027;DHT22;45891;53.006;6.512;2022-10-16T12:20:30;22.20;93.80
60027;DHT22;45891;53.006;6.512;2022-10-16T12:23:00;22.40;94.30
60027;DHT22;45891;53.006;6.512;2022-10-16T12:30:32;22.80;93.50
60027;DHT22;45891;53.006;6.512;2022-10-16T12:33:19;23.00;93.20
60027;DHT22;45891;53.006;6.512;2022-10-16T12:35:47;22.90;91.60
60027;DHT22;45891;53.006;6.512;2022-10-16T12:38:20;21.50;94.20
60027;DHT22;45891;53.006;6.512;2022-10-16T12:41:07;21.30;94.50
60027;DHT22;45891;53.006;6.512;2022-10-16T12:43:46;20.80;94.20
60027;DHT22;45891;53.006;6.512;2022-10-16T12:48:40;19.50;95.90
60027;DHT22;45891;53.006;6.512;2022-10-16T12:51:32;19.90;96.10
60027;DHT22;45891;53.006;6.512;2022-10-16T12:56:53;21.70;95.20
60027;DHT22;45891;53.006;6.512;2022-10-16T12:59:42;22.20;93.40
60027;DHT22;45891;53.006;6.512;2022-10-16T13:02:39;22.70;93.50
60027;DHT22;45891;53.006;6.512;2022-10-16T13:21:35;23.30;90.00
60027;DHT22;45891;53.006;6.512;2022-10-16T13:29:33;23.70;89.00
60027;DHT22;45891;53.006;6.512;2022-10-16T13:32:01;23.10;90.50
60027;DHT22;45891;53.006;6.512;2022-10-16T13:34:32;23.60;89.50
60027;DHT22;45891;53.006;6.512;2022-10-16T13:36:58;23.90;85.70
60027;DHT22;45891;53.006;6.512;2022-10-16T13:39:27;23.80;88.60
60027;DHT22;45891;53.006;6.512;2022-10-16T13:42:10;24.40;89.10
60027;DHT22;45891;53.006;6.512;2022-10-16T13:44:47;23.80;86.50
60027;DHT22;45891;53.006;6.512;2022-10-16T13:47:20;24.20;85.00
60027;DHT22;45891;53.006;6.512;2022-10-16T13:49:58;24.10;88.00
60027;DHT22;45891;53.006;6.512;2022-10-16T13:52:24;23.90;86.50
60027;DHT22;45891;53.006;6.512;2022-10-16T13:54:50;23.40;86.00
60027;DHT22;45891;53.006;6.512;2022-10-16T13:57:17;23.90;87.40
60027;DHT22;45891;53.006;6.512;2022-10-16T13:59:44;23.60;86.00
60027;DHT22;45891;53.006;6.512;2022-10-16T14:04:51;23.20;88.50
60027;DHT22;45891;53.006;6.512;2022-10-16T14:07:26;23.10;90.20
60027;DHT22;45891;53.006;6.512;2022-10-16T14:09:54;23.50;90.00
60027;DHT22;45891;53.006;6.512;2022-10-16T14:12:22;23.90;88.00
60027;DHT22;45891;53.006;6.512;2022-10-16T14:14:51;24.50;88.10
60027;DHT22;45891;53.006;6.512;2022-10-16T14:17:33;24.30;86.60
60027;DHT22;45891;53.006;6.512;2022-10-16T14:20:03;24.20;85.60
60027;DHT22;45891;53.006;6.512;2022-10-16T14:22:40;24.00;88.00
60027;DHT22;45891;53.006;6.512;2022-10-16T14:27:45;23.40;86.40
60027;DHT22;45891;53.006;6.512;2022-10-16T14:30:21;22.80;87.50
60027;DHT22;45891;53.006;6.512;2022-10-16T14:32:59;22.00;89.70
60027;DHT22;45891;53.006;6.512;2022-10-16T14:35:36;21.30;90.20
60027;DHT22;45891;53.006;6.512;2022-10-16T14:38:04;20.90;91.10
60027;DHT22;45891;53.006;6.512;2022-10-16T14:40:33;20.90;91.70
60027;DHT22;45891;53.006;6.512;2022-10-16T14:43:01;20.80;92.20
60027;DHT22;45891;53.006;6.512;2022-10-16T14:45:31;20.70;92.60
60027;DHT22;45891;53.006;6.512;2022-10-16T14:48:05;20.40;92.70
60027;DHT22;45891;53.006;6.512;2022-10-16T14:50:32;20.10;92.80
60027;DHT22;45891;53.006;6.512;2022-10-16T14:52:58;19.80;93.80
60027;DHT22;45891;53.006;6.512;2022-10-16T14:55:25;19.60;94.30
60027;DHT22;45891;53.006;6.512;2022-10-16T14:57:51;19.30;94.50
60027;DHT22;45891;53.006;6.512;2022-10-16T15:00:22;19.10;94.90
60027;DHT22;45891;53.006;6.512;2022-10-16T15:02:49;18.90;95.30
60027;DHT22;45891;53.006;6.512;2022-10-16T15:05:17;18.70;95.80
60027;DHT22;45891;53.006;6.512;2022-10-16T15:07:44;18.60;95.70
60027;DHT22;45891;53.006;6.512;2022-10-16T15:10:13;18.40;96.40
60027;DHT22;45891;53.006;6.512;2022-10-16T15:12:39;18.30;96.60
60027;DHT22;45891;53.006;6.512;2022-10-16T15:17:42;18.10;97.20
60027;DHT22;45891;53.006;6.512;2022-10-16T15:20:08;18.00;97.70
60027;DHT22;45891;53.006;6.512;2022-10-16T15:22:34;18.00;97.80
60027;DHT22;45891;53.006;6.512;2022-10-16T15:25:00;17.90;98.00
60027;DHT22;45891;53.006;6.512;2022-10-16T15:27:26;17.80;98.10
60027;DHT22;45891;53.006;6.512;2022-10-16T15:29:52;17.70;98.40
60027;DHT22;45891;53.006;6.512;2022-10-16T15:32:18;17.60;98.70
60027;DHT22;45891;53.006;6.512;2022-10-16T15:34:44;17.60;99.00
60027;DHT22;45891;53.006;6.512;2022-10-16T15:37:11;17.50;99.20
60027;DHT22;45891;53.006;6.512;2022-10-16T15:39:39;17.50;99.50
60027;DHT22;45891;53.006;6.512;2022-10-16T15:42:05;17.40;99.60
60027;DHT22;45891;53.006;6.512;2022-10-16T15:44:32;17.30;99.80
60027;DHT22;45891;53.006;6.512;2022-10-16T15:46:58;17.10;99.90
60027;DHT22;45891;53.006;6.512;2022-10-16T15:49:24;17.00;99.90
60027;DHT22;45891;53.006;6.512;2022-10-16T15:51:50;16.90;99.90
60027;DHT22;45891;53.006;6.512;2022-10-16T15:54:18;16.90;99.90
60027;DHT22;45891;53.006;6.512;2022-10-16T15:56:47;16.80;99.90
60027;DHT22;45891;53.006;6.512;2022-10-16T15:59:14;16.80;99.90
60027;DHT22;45891;53.006;6.512;2022-10-16T16:01:40;16.70;99.90
60027;DHT22;45891;53.006;6.512;2022-10-16T16:04:06;16.60;99.90
60027;DHT22;45891;53.006;6.512;2022-10-16T16:06:32;16.50;99.90
60027;DHT22;45891;53.006;6.512;2022-10-16T16:08:59;16.40;99.90
60027;DHT22;45891;53.006;6.512;2022-10-16T16:11:25;16.40;99.90
60027;DHT22;45891;53.006;6.512;2022-10-16T16:13:51;16.30;99.90
60027;DHT22;45891;53.006;6.512;2022-10-16T16:16:18;16.20;99.90
60027;DHT22;45891;53.006;6.512;2022-10-16T16:18:46;16.10;99.90
60027;DHT22;45891;53.006;6.512;2022-10-16T16:21:12;16.00;99.90
60027;DHT22;45891;53.006;6.512;2022-10-16T16:23:39;15.90;99.90
60027;DHT22;45891;53.006;6.512;2022-10-16T16:26:13;15.80;99.90
60027;DHT22;45891;53.006;6.512;2022-10-16T16:28:42;15.70;99.90
60027;DHT22;45891;53.006;6.512;2022-10-16T16:31:08;15.60;99.90
60027;DHT22;45891;53.006;6.512;2022-10-16T16:33:35;15.50;99.90
60027;DHT22;45891;53.006;6.512;2022-10-16T16:36:03;15.40;99.90
60027;DHT22;45891;53.006;6.512;2022-10-16T16:38:30;15.40;99.90
60027;DHT22;45891;53.006;6.512;2022-10-16T16:40:57;15.30;99.90
60027;DHT22;45891;53.006;6.512;2022-10-16T16:43:27;15.20;99.90
60027;DHT22;45891;53.006;6.512;2022-10-16T16:45:54;15.00;99.90
60027;DHT22;45891;53.006;6.512;2022-10-16T16:48:21;14.90;99.90
60027;DHT22;45891;53.006;6.512;2022-10-16T16:50:47;14.80;99.90
60027;DHT22;45891;53.006;6.512;2022-10-16T16:53:14;14.80;99.90
60027;DHT22;45891;53.006;6.512;2022-10-16T16:55:40;14.70;99.90
60027;DHT22;45891;53.006;6.512;2022-10-16T16:58:06;14.60;99.90
60027;DHT22;45891;53.006;6.512;2022-10-16T17:00:32;14.60;99.90
60027;DHT22;45891;53.006;6.512;2022-10-16T17:02:58;14.50;99.90
60027;DHT22;45891;53.006;6.512;2022-10-16T17:05:24;14.40;99.90
60027;DHT22;45891;53.006;6.512;2022-10-16T17:07:51;14.30;99.90
60027;DHT22;45891;53.006;6.512;2022-10-16T17:10:18;14.20;99.90
60027;DHT22;45891;53.006;6.512;2022-10-16T17:12:44;14.10;99.90
60027;DHT22;45891;53.006;6.512;2022-10-16T17:15:10;14.00;99.90
60027;DHT22;45891;53.006;6.512;2022-10-16T17:17:36;14.00;99.90
60027;DHT22;45891;53.006;6.512;2022-10-16T17:20:02;13.90;99.90
60027;DHT22;45891;53.006;6.512;2022-10-16T17:22:29;13.80;99.90
60027;DHT22;45891;53.006;6.512;2022-10-16T17:24:55;13.70;99.90
60027;DHT22;45891;53.006;6.512;2022-10-16T17:27:21;13.60;99.90
60027;DHT22;45891;53.006;6.512;2022-10-16T17:29:51;13.60;99.90
60027;DHT22;45891;53.006;6.512;2022-10-16T17:32:17;13.50;99.90
60027;DHT22;45891;53.006;6.512;2022-10-16T17:34:45;13.40;99.90
60027;DHT22;45891;53.006;6.512;2022-10-16T17:37:11;13.40;99.90
60027;DHT22;45891;53.006;6.512;2022-10-16T17:39:37;13.40;99.90
60027;DHT22;45891;53.006;6.512;2022-10-16T17:42:03;13.30;99.90
60027;DHT22;45891;53.006;6.512;2022-10-16T17:44:30;13.30;99.90
60027;DHT22;45891;53.006;6.512;2022-10-16T17:46:56;13.30;99.90